createdAt,value
2023-07-27T00:01:48.124Z,21.30
2023-07-27T00:04:15.278Z,21.30
2023-07-27T00:06:42.560Z,21.30
2023-07-27T00:09:13.922Z,21.30
2023-07-27T00:11:41.056Z,21.20
2023-07-27T00:14:08.469Z,21.20
2023-07-27T00:16:35.796Z,21.10
2023-07-27T00:19:10.081Z,21.10
2023-07-27T00:21:39.507Z,21.10
2023-07-27T00:24:11.293Z,21.10
2023-07-27T00:26:38.461Z,21.10
2023-07-27T00:29:05.663Z,21.00
2023-07-27T00:31:32.912Z,21.00
2023-07-27T00:34:00.073Z,21.00
2023-07-27T00:36:29.982Z,21.00
2023-07-27T00:38:57.162Z,21.00
2023-07-27T00:41:24.454Z,20.90
2023-07-27T00:43:51.665Z,20.90
2023-07-27T00:46:21.224Z,20.90
2023-07-27T00:48:54.053Z,20.90
2023-07-27T00:51:23.338Z,20.80
2023-07-27T00:53:57.324Z,20.80
2023-07-27T00:56:27.573Z,20.80
2023-07-27T00:58:58.758Z,20.80
2023-07-27T01:01:28.872Z,20.80
2023-07-27T01:03:59.479Z,20.70
2023-07-27T01:06:26.934Z,20.70
2023-07-27T01:08:57.985Z,20.70
2023-07-27T01:11:56.240Z,20.70
2023-07-27T01:14:26.746Z,20.70
2023-07-27T01:17:11.050Z,20.60
2023-07-27T01:20:17.668Z,20.60
2023-07-27T01:23:05.124Z,20.60
2023-07-27T01:26:05.678Z,20.50
2023-07-27T01:28:57.650Z,20.50
2023-07-27T01:31:32.332Z,20.50
2023-07-27T01:34:04.378Z,20.50
2023-07-27T01:36:41.802Z,20.40
2023-07-27T01:39:12.314Z,20.40
2023-07-27T01:41:42.801Z,20.40
2023-07-27T01:44:11.960Z,20.40
2023-07-27T01:46:48.889Z,20.40
2023-07-27T01:49:17.219Z,20.40
2023-07-27T01:51:53.246Z,20.30
2023-07-27T01:54:20.584Z,20.30
2023-07-27T01:56:55.989Z,20.30
2023-07-27T01:59:23.967Z,20.30
2023-07-27T02:01:51.821Z,20.30
2023-07-27T02:04:19.036Z,20.30
2023-07-27T02:06:52.417Z,20.20
2023-07-27T02:09:20.047Z,20.20
2023-07-27T02:11:59.223Z,20.20
2023-07-27T02:14:57.967Z,20.20
2023-07-27T02:18:05.448Z,20.20
2023-07-27T02:20:37.628Z,20.20
2023-07-27T02:23:11.321Z,20.10
2023-07-27T02:25:39.181Z,20.10
2023-07-27T02:28:06.358Z,20.10
2023-07-27T02:30:33.540Z,20.10
2023-07-27T02:33:00.742Z,20.10
2023-07-27T02:35:27.919Z,20.10
2023-07-27T02:37:58.090Z,20.10
2023-07-27T02:40:27.349Z,20.10
2023-07-27T02:42:54.531Z,20.10
2023-07-27T02:45:21.799Z,20.00
2023-07-27T02:47:54.474Z,20.10
2023-07-27T02:50:24.256Z,20.00
2023-07-27T02:52:53.548Z,20.00
2023-07-27T02:55:22.811Z,20.00
2023-07-27T02:57:52.469Z,19.90
2023-07-27T03:00:22.141Z,19.90
2023-07-27T03:02:49.507Z,19.90
2023-07-27T03:05:19.042Z,19.90
2023-07-27T03:07:46.172Z,19.90
2023-07-27T03:10:15.615Z,19.90
2023-07-27T03:12:47.624Z,19.90
2023-07-27T03:15:16.873Z,19.80
2023-07-27T03:17:48.283Z,19.80
2023-07-27T03:20:15.516Z,19.80
2023-07-27T03:22:44.945Z,19.80
2023-07-27T03:25:12.116Z,19.80
2023-07-27T03:27:39.333Z,19.80
2023-07-27T03:30:07.176Z,19.80
2023-07-27T03:32:39.089Z,19.80
2023-07-27T03:35:06.691Z,19.80
2023-07-27T03:37:34.197Z,19.70
2023-07-27T03:40:03.699Z,19.70
2023-07-27T03:42:33.580Z,19.70
2023-07-27T03:45:00.789Z,19.70
2023-07-27T03:47:28.017Z,19.70
2023-07-27T03:49:57.568Z,19.70
2023-07-27T03:52:24.766Z,19.70
2023-07-27T03:54:54.124Z,19.70
2023-07-27T03:57:21.389Z,19.70
2023-07-27T03:59:50.601Z,19.70
2023-07-27T04:02:20.261Z,19.70
2023-07-27T04:04:48.871Z,19.70
2023-07-27T04:07:21.470Z,19.70
2023-07-27T04:09:51.017Z,19.70
2023-07-27T04:12:20.239Z,19.70
2023-07-27T04:14:47.401Z,19.70
2023-07-27T04:17:15.007Z,19.70
2023-07-27T04:19:44.469Z,19.80
2023-07-27T04:22:14.147Z,19.80
2023-07-27T04:24:46.176Z,19.70
2023-07-27T04:27:13.699Z,19.80
2023-07-27T04:29:40.914Z,19.80
2023-07-27T04:32:08.761Z,19.80
2023-07-27T04:34:38.159Z,19.80
2023-07-27T04:37:07.637Z,19.80
2023-07-27T04:39:34.797Z,19.80
2023-07-27T04:42:01.989Z,19.80
2023-07-27T04:44:29.152Z,19.80
2023-07-27T04:46:59.397Z,19.90
2023-07-27T04:49:28.818Z,19.90
2023-07-27T04:51:56.012Z,19.90
2023-07-27T04:54:23.849Z,19.90
2023-07-27T04:56:51.056Z,19.90
2023-07-27T04:59:18.198Z,19.90
2023-07-27T05:01:45.424Z,19.90
2023-07-27T05:04:12.606Z,19.90
2023-07-27T05:06:42.713Z,19.90
2023-07-27T05:09:12.288Z,19.90
2023-07-27T05:11:40.575Z,20.00
2023-07-27T05:14:07.793Z,20.00
2023-07-27T05:16:35.256Z,20.00
2023-07-27T05:19:05.162Z,20.00
2023-07-27T05:21:32.332Z,20.00
2023-07-27T05:23:59.533Z,20.00
2023-07-27T05:26:26.685Z,20.10
2023-07-27T05:28:57.298Z,20.10
2023-07-27T05:31:31.026Z,20.10
2023-07-27T05:34:00.444Z,20.10
2023-07-27T05:36:27.605Z,20.20
2023-07-27T05:38:58.054Z,20.10
2023-07-27T05:41:25.384Z,20.20
2023-07-27T05:43:52.639Z,20.20
2023-07-27T05:46:19.898Z,20.20
2023-07-27T05:48:47.243Z,20.20
2023-07-27T05:51:14.450Z,20.30
2023-07-27T05:53:41.618Z,20.30
2023-07-27T05:56:08.776Z,20.30
2023-07-27T05:58:36.579Z,20.40
2023-07-27T06:01:04.940Z,20.40
2023-07-27T06:03:33.158Z,20.40
2023-07-27T06:06:00.631Z,20.50
2023-07-27T06:08:28.781Z,20.50
2023-07-27T06:11:08.920Z,20.50
2023-07-27T06:13:36.793Z,20.60
2023-07-27T06:16:04.611Z,20.60
2023-07-27T06:18:32.442Z,20.60
2023-07-27T06:21:01.958Z,20.60
2023-07-27T06:23:31.266Z,20.60
2023-07-27T06:25:58.509Z,20.70
2023-07-27T06:28:28.717Z,20.70
2023-07-27T06:30:58.517Z,20.70
2023-07-27T06:33:25.794Z,20.80
2023-07-27T06:35:53.040Z,20.80
2023-07-27T06:38:20.399Z,20.80
2023-07-27T06:40:47.568Z,20.80
2023-07-27T06:43:14.817Z,20.80
2023-07-27T06:45:44.558Z,20.80
2023-07-27T06:48:12.073Z,20.80
2023-07-27T06:50:39.278Z,20.90
2023-07-27T06:53:06.491Z,20.90
2023-07-27T06:55:34.038Z,20.90
2023-07-27T06:58:02.389Z,20.90
2023-07-27T07:00:29.594Z,20.90
2023-07-27T07:02:56.912Z,21.00
2023-07-27T07:05:26.667Z,21.00
2023-07-27T07:07:56.302Z,21.00
2023-07-27T07:10:23.494Z,21.00
2023-07-27T07:12:50.695Z,21.00
2023-07-27T07:15:20.126Z,21.00
2023-07-27T07:17:47.370Z,21.00
2023-07-27T07:20:15.392Z,21.10
2023-07-27T07:22:42.527Z,21.10
2023-07-27T07:25:12.070Z,21.10
2023-07-27T07:27:39.319Z,21.20
2023-07-27T07:30:07.208Z,21.20
2023-07-27T07:32:37.083Z,21.20
2023-07-27T07:35:04.535Z,21.20
2023-07-27T07:37:31.701Z,21.20
2023-07-27T07:39:58.913Z,21.20
2023-07-27T07:42:28.585Z,21.20
2023-07-27T07:44:55.792Z,21.20
2023-07-27T07:47:23.061Z,21.20
2023-07-27T07:49:50.329Z,21.20
2023-07-27T07:52:17.486Z,21.20
2023-07-27T07:54:44.717Z,21.20
2023-07-27T07:57:14.030Z,21.20
2023-07-27T07:59:41.277Z,21.20
2023-07-27T08:02:10.625Z,21.20
2023-07-27T08:04:37.827Z,21.20
2023-07-27T08:07:07.734Z,21.20
2023-07-27T08:09:35.172Z,21.20
2023-07-27T08:12:02.385Z,21.30
2023-07-27T08:14:29.579Z,21.30
2023-07-27T08:16:56.860Z,21.30
2023-07-27T08:19:27.027Z,21.30
2023-07-27T08:21:54.285Z,21.30
2023-07-27T08:24:22.833Z,21.30
2023-07-27T08:26:52.403Z,21.30
2023-07-27T08:29:21.766Z,21.30
2023-07-27T08:31:51.195Z,21.30
2023-07-27T08:34:20.442Z,21.20
2023-07-27T08:36:54.685Z,21.30
2023-07-27T08:39:26.628Z,21.30
2023-07-27T08:41:56.260Z,21.30
2023-07-27T08:44:25.743Z,21.30
2023-07-27T08:46:55.400Z,21.30
2023-07-27T08:49:22.785Z,21.30
2023-07-27T08:51:50.391Z,21.30
2023-07-27T08:54:17.550Z,21.30
2023-07-27T08:56:44.759Z,21.30
2023-07-27T08:59:12.246Z,21.30
2023-07-27T09:01:42.364Z,21.40
2023-07-27T09:04:09.696Z,21.40
2023-07-27T09:06:39.070Z,21.40
2023-07-27T09:09:32.572Z,21.50
2023-07-27T09:11:59.816Z,21.50
2023-07-27T09:14:34.701Z,21.50
2023-07-27T09:17:04.979Z,21.60
2023-07-27T09:19:37.963Z,21.60
2023-07-27T09:22:08.433Z,21.60
2023-07-27T09:24:36.410Z,21.70
2023-07-27T09:27:09.823Z,21.70
2023-07-27T09:29:42.517Z,21.80
2023-07-27T09:32:12.632Z,21.80
2023-07-27T09:34:39.847Z,21.80
2023-07-27T09:37:09.771Z,21.90
2023-07-27T09:39:44.705Z,21.90
2023-07-27T09:42:14.385Z,21.90
2023-07-27T09:44:56.396Z,21.90
2023-07-27T09:47:31.154Z,21.90
2023-07-27T09:50:04.307Z,22.00
2023-07-27T09:52:34.590Z,22.00
2023-07-27T09:55:04.538Z,22.00
2023-07-27T09:57:33.345Z,22.00
2023-07-27T10:00:05.993Z,22.00
2023-07-27T10:02:35.053Z,22.00
2023-07-27T10:05:04.723Z,22.00
2023-07-27T10:07:44.256Z,22.00
2023-07-27T10:10:40.964Z,21.90
2023-07-27T10:13:12.799Z,21.90
2023-07-27T10:15:46.309Z,21.90
2023-07-27T10:18:16.290Z,21.90
2023-07-27T10:20:43.779Z,21.90
2023-07-27T10:23:14.740Z,21.90
2023-07-27T10:25:56.185Z,21.90
2023-07-27T10:28:45.149Z,21.90
2023-07-27T10:31:15.239Z,21.90
2023-07-27T10:36:53.893Z,21.90
2023-07-27T10:39:32.847Z,22.00
2023-07-27T10:42:05.494Z,21.90
2023-07-27T10:44:54.732Z,21.90
2023-07-27T10:47:26.236Z,22.00
2023-07-27T10:49:58.471Z,22.00
2023-07-27T10:52:31.273Z,22.00
2023-07-27T10:55:01.271Z,22.00
2023-07-27T10:57:31.072Z,22.00
2023-07-27T11:00:00.408Z,22.00
2023-07-27T11:02:33.269Z,22.00
2023-07-27T11:05:07.051Z,22.00
2023-07-27T11:07:40.629Z,22.00
2023-07-27T11:10:12.272Z,22.00
2023-07-27T11:12:57.274Z,22.00
2023-07-27T11:15:26.848Z,22.00
2023-07-27T11:18:00.697Z,22.00
2023-07-27T11:20:30.251Z,22.00
2023-07-27T11:23:00.672Z,22.00
2023-07-27T11:25:33.762Z,22.00
2023-07-27T11:28:04.522Z,22.10
2023-07-27T11:30:36.811Z,22.00
2023-07-27T11:33:05.886Z,22.00
2023-07-27T11:35:35.844Z,22.00
2023-07-27T11:38:03.056Z,22.00
2023-07-27T11:40:31.556Z,22.00
2023-07-27T11:43:04.983Z,22.00
2023-07-27T11:45:36.226Z,22.00
2023-07-27T11:48:06.567Z,22.00
2023-07-27T11:50:39.962Z,22.00
2023-07-27T11:53:19.918Z,22.00
2023-07-27T11:55:50.287Z,22.00
2023-07-27T11:58:20.613Z,22.00
2023-07-27T12:00:51.371Z,22.00
2023-07-27T12:03:23.637Z,22.00
2023-07-27T12:05:55.159Z,22.00
2023-07-27T12:23:45.144Z,22.10
2023-07-27T12:28:46.611Z,22.10
2023-07-27T12:32:10.706Z,22.10
2023-07-27T12:34:00.986Z,22.10
2023-07-27T12:36:30.430Z,22.10
2023-07-27T12:38:57.679Z,22.10
2023-07-27T12:41:24.964Z,22.00
2023-07-27T12:43:52.264Z,22.00
2023-07-27T12:46:19.793Z,22.00
2023-07-27T12:48:49.180Z,22.00
2023-07-27T12:51:16.815Z,21.90
2023-07-27T12:53:44.054Z,21.90
2023-07-27T12:56:12.458Z,21.90
2023-07-27T12:58:39.730Z,21.80
2023-07-27T13:01:06.911Z,21.80
2023-07-27T13:03:35.463Z,21.80
2023-07-27T13:06:05.498Z,21.80
2023-07-27T13:08:32.676Z,21.90
2023-07-27T13:11:02.284Z,21.90
2023-07-27T13:13:29.466Z,21.90
2023-07-27T13:15:58.794Z,21.90
2023-07-27T13:18:29.383Z,21.90
2023-07-27T13:20:57.290Z,21.90
2023-07-27T13:23:26.981Z,21.90
2023-07-27T13:25:58.763Z,21.90
2023-07-27T13:28:28.016Z,21.90
2023-07-27T13:30:55.216Z,21.90
2023-07-27T13:33:22.372Z,21.90
2023-07-27T13:35:49.634Z,21.90
2023-07-27T13:38:16.913Z,21.90
2023-07-27T13:40:44.116Z,21.90
2023-07-27T13:43:11.334Z,21.80
2023-07-27T13:45:38.603Z,21.80
2023-07-27T13:48:09.887Z,21.80
2023-07-27T13:50:38.932Z,21.80
2023-07-27T13:53:06.283Z,21.80
2023-07-27T13:55:35.968Z,21.80
2023-07-27T13:58:03.268Z,21.80
2023-07-27T14:00:32.657Z,21.80
2023-07-27T14:03:04.509Z,21.80
2023-07-27T14:05:31.806Z,21.90
2023-07-27T14:07:59.120Z,21.90
2023-07-27T14:10:28.604Z,21.90
2023-07-27T14:12:55.930Z,21.90
2023-07-27T14:15:25.641Z,21.90
2023-07-27T14:17:52.829Z,21.90
2023-07-27T14:20:20.953Z,21.90
2023-07-27T14:22:50.514Z,21.90
2023-07-27T14:25:20.036Z,21.90
2023-07-27T14:27:58.733Z,21.90
2023-07-27T14:30:31.258Z,21.90
2023-07-27T14:32:58.508Z,21.90
2023-07-27T14:35:26.688Z,21.90
2023-07-27T14:37:56.791Z,22.00
2023-07-27T14:42:56.489Z,22.00
2023-07-27T14:45:24.082Z,22.00
2023-07-27T14:47:53.813Z,22.00
2023-07-27T14:52:58.652Z,22.00
2023-07-27T14:55:28.093Z,22.00
2023-07-27T14:57:59.149Z,22.00
2023-07-27T15:00:35.579Z,22.00
2023-07-27T15:03:06.485Z,22.00
2023-07-27T15:05:36.323Z,22.00
2023-07-27T15:08:08.488Z,22.00
2023-07-27T15:10:39.913Z,22.00
2023-07-27T15:13:08.076Z,22.00
2023-07-27T15:15:36.460Z,22.00
2023-07-27T15:18:05.640Z,22.00
2023-07-27T15:20:36.383Z,22.00
2023-07-27T15:23:06.058Z,22.00
2023-07-27T15:25:34.244Z,22.00
2023-07-27T15:28:05.915Z,22.00
2023-07-27T15:30:35.537Z,22.00
2023-07-27T15:33:02.817Z,22.00
2023-07-27T15:35:35.144Z,22.00
2023-07-27T15:38:02.842Z,22.00
2023-07-27T15:40:30.173Z,22.00
2023-07-27T15:43:01.021Z,22.00
2023-07-27T15:45:28.503Z,22.00
2023-07-27T15:47:55.758Z,22.00
2023-07-27T15:50:25.988Z,22.00
2023-07-27T15:52:53.175Z,22.00
2023-07-27T15:55:22.606Z,22.00
2023-07-27T15:57:49.814Z,22.00
2023-07-27T16:00:19.722Z,22.00
2023-07-27T16:02:47.139Z,22.00
2023-07-27T16:05:17.072Z,22.00
2023-07-27T16:07:44.308Z,22.00
2023-07-27T16:10:11.851Z,22.00
2023-07-27T16:12:39.070Z,22.00
2023-07-27T16:15:06.929Z,21.90
2023-07-27T16:17:34.179Z,21.90
2023-07-27T16:20:05.272Z,21.90
2023-07-27T16:22:34.943Z,21.90
2023-07-27T16:25:07.188Z,21.90
2023-07-27T16:27:36.383Z,22.00
2023-07-27T16:30:06.518Z,21.90
2023-07-27T16:32:38.909Z,22.00
2023-07-27T16:35:10.331Z,22.00
2023-07-27T16:37:37.741Z,22.00
2023-07-27T16:40:05.673Z,22.00
2023-07-27T16:42:32.850Z,22.00
2023-07-27T16:45:02.523Z,22.00
2023-07-27T16:47:31.943Z,22.00
2023-07-27T16:49:59.240Z,21.90
2023-07-27T16:52:26.433Z,21.90
2023-07-27T16:54:53.581Z,21.90
2023-07-27T16:57:23.202Z,21.90
2023-07-27T16:59:50.345Z,21.80
2023-07-27T17:02:19.966Z,21.80
2023-07-27T17:04:49.678Z,21.80
2023-07-27T17:07:16.871Z,21.80
2023-07-27T17:09:50.375Z,21.70
2023-07-27T17:12:18.288Z,21.70
2023-07-27T17:14:50.161Z,21.70
2023-07-27T17:17:19.671Z,21.70
2023-07-27T17:19:49.983Z,21.70
2023-07-27T17:22:17.167Z,21.70
2023-07-27T17:24:44.339Z,21.70
2023-07-27T17:27:11.552Z,21.70
2023-07-27T17:29:45.934Z,21.70
2023-07-27T17:32:14.454Z,21.70
2023-07-27T17:34:41.677Z,21.70
2023-07-27T17:37:10.954Z,21.70
2023-07-27T17:39:38.181Z,21.70
2023-07-27T17:42:05.740Z,21.70
2023-07-27T17:44:35.223Z,21.70
2023-07-27T17:47:02.441Z,21.70
2023-07-27T17:49:34.640Z,21.70
2023-07-27T17:52:01.899Z,21.70
2023-07-27T17:54:31.761Z,21.70
2023-07-27T17:56:59.000Z,21.70
2023-07-27T17:59:26.234Z,21.70
2023-07-27T18:01:53.421Z,21.70
2023-07-27T18:04:20.580Z,21.70
2023-07-27T18:06:47.734Z,21.70
2023-07-27T18:09:14.929Z,21.70
2023-07-27T18:11:42.112Z,21.70
2023-07-27T18:14:09.281Z,21.70
2023-07-27T18:16:36.838Z,21.70
2023-07-27T18:19:04.218Z,21.70
2023-07-27T18:21:34.085Z,21.70
2023-07-27T18:24:08.577Z,21.70
2023-07-27T18:26:45.630Z,21.70
2023-07-27T18:29:12.867Z,21.70
2023-07-27T18:31:40.044Z,21.70
2023-07-27T18:34:09.420Z,21.70
2023-07-27T18:36:39.969Z,21.70
2023-07-27T18:39:09.421Z,21.70
2023-07-27T18:41:38.738Z,21.70
2023-07-27T18:44:15.453Z,21.70
2023-07-27T18:46:42.581Z,21.70
2023-07-27T18:49:11.979Z,21.70
2023-07-27T18:51:39.181Z,21.70
2023-07-27T18:54:06.334Z,21.70
2023-07-27T18:56:33.518Z,21.70
2023-07-27T18:59:00.678Z,21.70
2023-07-27T19:01:27.944Z,21.60
2023-07-27T19:03:55.150Z,21.60
2023-07-27T19:06:25.068Z,21.60
2023-07-27T19:08:54.754Z,21.60
2023-07-27T19:11:22.052Z,21.60
2023-07-27T19:13:49.237Z,21.60
2023-07-27T19:16:16.452Z,21.60
2023-07-27T19:18:43.929Z,21.60
2023-07-27T19:21:15.173Z,21.60
2023-07-27T19:23:45.071Z,21.50
2023-07-27T19:26:22.416Z,21.50
2023-07-27T19:28:50.430Z,21.50
2023-07-27T19:31:22.577Z,21.50
2023-07-27T19:33:51.778Z,21.50
2023-07-27T19:36:22.231Z,21.50
2023-07-27T19:38:55.572Z,21.50
2023-07-27T19:41:22.853Z,21.50
2023-07-27T19:43:52.186Z,21.50
2023-07-27T19:46:19.557Z,21.40
2023-07-27T19:48:49.216Z,21.40
2023-07-27T19:51:18.941Z,21.40
2023-07-27T19:53:46.317Z,21.40
2023-07-27T19:56:17.664Z,21.40
2023-07-27T19:58:49.010Z,21.40
2023-07-27T20:01:17.578Z,21.40
2023-07-27T20:03:48.837Z,21.30
2023-07-27T20:06:17.155Z,21.30
2023-07-27T20:08:48.749Z,21.30
2023-07-27T20:11:17.348Z,21.30
2023-07-27T20:13:46.533Z,21.30
2023-07-27T20:16:16.290Z,21.30
2023-07-27T20:18:46.846Z,21.30
2023-07-27T20:21:15.145Z,21.30
2023-07-27T20:23:43.223Z,21.30
2023-07-27T20:26:11.105Z,21.20
2023-07-27T20:28:38.349Z,21.20
2023-07-27T20:31:09.936Z,21.20
2023-07-27T20:33:39.815Z,21.20
2023-07-27T20:36:07.620Z,21.20
2023-07-27T20:38:34.944Z,21.20
2023-07-27T20:41:05.957Z,21.20
2023-07-27T20:43:35.382Z,21.20
2023-07-27T20:46:03.796Z,21.20
2023-07-27T20:48:31.879Z,21.20
2023-07-27T20:51:03.929Z,21.20
2023-07-27T20:53:31.088Z,21.20
2023-07-27T20:56:02.939Z,21.10
2023-07-27T20:58:30.084Z,21.10
2023-07-27T21:01:01.054Z,21.10
2023-07-27T21:03:33.753Z,21.10
2023-07-27T21:06:04.917Z,21.10
2023-07-27T21:08:36.540Z,21.10
2023-07-27T21:11:09.753Z,21.10
2023-07-27T21:13:38.976Z,21.10
2023-07-27T21:16:10.332Z,21.10
2023-07-27T21:18:38.214Z,21.10
2023-07-27T21:21:18.393Z,21.10
2023-07-27T21:23:47.228Z,21.10
2023-07-27T21:26:14.876Z,21.10
2023-07-27T21:28:47.398Z,21.10
2023-07-27T21:31:17.206Z,21.00
2023-07-27T21:33:44.483Z,21.00
2023-07-27T21:36:11.755Z,21.00
2023-07-27T21:38:39.065Z,21.00
2023-07-27T21:41:10.955Z,21.00
2023-07-27T21:43:38.974Z,21.00
2023-07-27T21:46:09.721Z,21.00
2023-07-27T21:48:37.000Z,21.00
2023-07-27T21:51:04.304Z,21.00
2023-07-27T21:53:33.543Z,21.00
2023-07-27T21:56:01.743Z,21.00
2023-07-27T21:58:31.332Z,21.00
2023-07-27T22:00:58.665Z,21.00
2023-07-27T22:03:26.238Z,21.00
2023-07-27T22:06:01.253Z,21.00
2023-07-27T22:08:28.421Z,21.00
2023-07-27T22:10:58.028Z,21.00
2023-07-27T22:13:27.567Z,21.10
2023-07-27T22:15:54.847Z,21.00
2023-07-27T22:18:22.064Z,21.00
2023-07-27T22:20:49.660Z,21.00
2023-07-27T22:23:16.831Z,21.00
2023-07-27T22:25:44.544Z,21.00
2023-07-27T22:28:12.680Z,21.10
2023-07-27T22:30:47.175Z,21.10
2023-07-27T22:33:15.136Z,21.10
2023-07-27T22:35:45.016Z,21.10
2023-07-27T22:38:12.996Z,21.10
2023-07-27T22:41:00.072Z,21.10
2023-07-27T22:43:27.405Z,21.10
2023-07-27T22:45:57.395Z,21.10
2023-07-27T22:48:29.630Z,21.10
2023-07-27T22:51:00.246Z,21.10
2023-07-27T22:53:29.808Z,21.10
2023-07-27T22:55:59.252Z,21.10
2023-07-27T22:58:28.530Z,21.10
2023-07-27T23:00:58.311Z,21.10
2023-07-27T23:03:25.522Z,21.10
2023-07-27T23:05:52.749Z,21.10
2023-07-27T23:08:20.736Z,21.10
2023-07-27T23:10:47.890Z,21.10
2023-07-27T23:13:17.131Z,21.10
2023-07-27T23:15:44.426Z,21.10
2023-07-27T23:18:11.684Z,21.10
2023-07-27T23:20:40.985Z,21.10
2023-07-27T23:23:13.149Z,21.10
2023-07-27T23:25:40.461Z,21.10
2023-07-27T23:28:08.074Z,21.10
2023-07-27T23:30:38.122Z,21.10
2023-07-27T23:33:07.919Z,21.10
2023-07-27T23:35:35.813Z,21.10
2023-07-27T23:38:05.449Z,21.10
2023-07-27T23:40:32.704Z,21.10
2023-07-27T23:43:02.040Z,21.10
2023-07-27T23:45:31.311Z,21.10
2023-07-27T23:47:58.565Z,21.10
2023-07-27T23:50:25.792Z,21.10
2023-07-27T23:52:55.192Z,21.10
2023-07-27T23:55:22.405Z,21.10
2023-07-27T23:57:49.528Z,21.10
